Time;durP1;ratioP1;P1;durP2;ratioP2;P2;SDS_P1;SDS_P2;PMS_P1;PMS_P2;Temp;Humidity;BMP_temperature;BMP_pressure;BME280_temperature;BME280_humidity;BME280_pressure;Samples;Min_cycle;Max_cycle;Signal;HPM_P1;HPM_P2
2022/07/13 00:01:14;;;;;;;3.70;0.90;;;15.80;99.90;;;;;;5095070;28;20403;-85
2022/07/13 00:03:41;;;;;;;4.80;0.90;;;15.70;99.90;;;;;;5077102;28;20384;-85
2022/07/13 00:06:10;;;;;;;2.58;1.10;;;15.60;99.90;;;;;;5076959;28;20934;-87
2022/07/13 00:08:37;;;;;;;5.72;1.00;;;15.60;99.90;;;;;;5094953;28;20388;-86
2022/07/13 00:11:05;;;;;;;1.77;0.80;;;15.60;99.90;;;;;;5076887;28;20791;-87
2022/07/13 00:13:33;;;;;;;3.17;0.90;;;15.60;99.90;;;;;;5078938;28;20398;-86
2022/07/13 00:16:01;;;;;;;1.92;0.80;;;15.60;99.90;;;;;;5092624;28;20884;-86
2022/07/13 00:18:29;;;;;;;1.73;1.03;;;15.60;99.90;;;;;;5097031;28;20478;-86
2022/07/13 00:20:57;;;;;;;3.17;0.88;;;15.40;99.90;;;;;;5115390;28;20873;-87
2022/07/13 00:23:25;;;;;;;2.75;1.00;;;15.50;99.90;;;;;;5096903;28;20406;-87
2022/07/13 00:25:52;;;;;;;2.40;0.88;;;15.40;99.90;;;;;;5080249;28;20443;-87
2022/07/13 00:28:20;;;;;;;3.30;0.80;;;15.40;99.90;;;;;;5080417;28;20413;-87
2022/07/13 00:30:48;;;;;;;4.43;0.90;;;15.50;99.90;;;;;;5096552;28;20753;-87
2022/07/13 00:33:16;;;;;;;2.95;0.90;;;15.30;99.90;;;;;;5094973;28;20402;-86
2022/07/13 00:35:44;;;;;;;2.67;0.90;;;15.30;99.90;;;;;;5085033;28;20788;-86
2022/07/13 00:38:12;;;;;;;2.55;0.90;;;15.30;99.90;;;;;;5096238;28;20983;-86
2022/07/13 00:40:39;;;;;;;3.83;0.98;;;15.40;99.90;;;;;;5096793;28;20473;-86
2022/07/13 00:43:08;;;;;;;4.45;1.02;;;15.20;99.90;;;;;;5113610;28;20394;-86
2022/07/13 00:45:36;;;;;;;3.23;1.10;;;15.10;99.90;;;;;;5114553;28;20386;-86
2022/07/13 00:48:05;;;;;;;2.38;1.20;;;15.20;99.90;;;;;;5114510;28;20872;-86
2022/07/13 00:50:33;;;;;;;3.78;1.02;;;15.10;99.90;;;;;;5079561;28;20730;-85
2022/07/13 00:53:01;;;;;;;3.90;1.00;;;15.00;99.90;;;;;;5114388;28;20884;-86
2022/07/13 00:55:29;;;;;;;1.77;1.00;;;14.90;99.90;;;;;;5096488;28;20390;-85
2022/07/13 00:57:58;;;;;;;4.15;1.00;;;15.00;99.90;;;;;;5096378;28;20387;-86
2022/07/13 01:00:26;;;;;;;2.20;0.90;;;15.10;99.90;;;;;;5079370;28;20390;-86
2022/07/13 01:02:54;;;;;;;4.60;1.13;;;15.10;99.90;;;;;;5114813;28;20459;-86
2022/07/13 01:05:22;;;;;;;5.30;1.00;;;15.10;99.90;;;;;;5113019;28;20402;-86
2022/07/13 01:07:50;;;;;;;3.03;0.93;;;15.10;99.90;;;;;;5088804;28;20404;-87
2022/07/13 01:10:19;;;;;;;1.27;0.90;;;15.00;99.90;;;;;;5073637;28;20498;-85
2022/07/13 01:12:47;;;;;;;3.22;1.00;;;15.00;99.90;;;;;;5089426;28;20439;-86
2022/07/13 01:15:15;;;;;;;3.15;1.08;;;15.00;99.90;;;;;;5071986;28;20386;-86
2022/07/13 01:17:43;;;;;;;1.83;0.93;;;15.00;99.90;;;;;;5066995;28;20951;-86
2022/07/13 01:20:11;;;;;;;5.35;1.15;;;14.80;99.90;;;;;;5062074;28;20919;-86
2022/07/13 01:22:43;;;;;;;4.17;1.00;;;14.80;99.90;;;;;;5052101;28;20483;-86
2022/07/13 01:25:14;;;;;;;2.45;0.80;;;14.80;99.90;;;;;;5052281;28;20842;-85
2022/07/13 01:27:43;;;;;;;4.18;1.00;;;14.80;99.90;;;;;;5052160;28;20862;-85
2022/07/13 01:30:12;;;;;;;3.40;0.90;;;14.80;99.90;;;;;;5053184;28;20723;-86
2022/07/13 01:32:43;;;;;;;2.95;0.80;;;14.70;99.90;;;;;;5068736;28;20387;-85
2022/07/13 01:35:11;;;;;;;4.93;0.90;;;14.70;99.90;;;;;;5051985;28;20789;-85
2022/07/13 01:37:41;;;;;;;2.97;1.10;;;14.70;99.90;;;;;;5051691;28;20433;-86
2022/07/13 01:40:11;;;;;;;2.30;1.00;;;14.70;99.90;;;;;;5052177;28;20400;-85
2022/07/13 01:42:48;;;;;;;3.58;1.05;;;14.60;99.90;;;;;;5085322;28;20446;-86
2022/07/13 01:45:22;;;;;;;2.80;1.00;;;14.60;99.90;;;;;;5051869;28;20913;-85
2022/07/13 01:47:56;;;;;;;5.05;0.90;;;14.60;99.90;;;;;;5050916;28;20402;-85
2022/07/13 01:50:27;;;;;;;2.03;1.00;;;14.70;99.90;;;;;;5051998;28;20410;-84
2022/07/13 01:52:55;;;;;;;3.83;1.08;;;14.50;99.90;;;;;;5035151;28;20396;-86
2022/07/13 01:55:24;;;;;;;1.40;0.90;;;14.50;99.90;;;;;;5035214;28;20407;-86
2022/07/13 01:57:59;;;;;;;4.07;1.00;;;14.50;99.90;;;;;;5051516;28;20920;-87
2022/07/13 02:00:29;;;;;;;2.30;0.87;;;14.40;99.90;;;;;;5051412;28;20399;-86
2022/07/13 02:02:57;;;;;;;2.22;0.90;;;14.40;99.90;;;;;;5051498;28;20396;-86
2022/07/13 02:05:27;;;;;;;3.80;1.10;;;14.30;99.90;;;;;;5051278;28;20420;-86
2022/07/13 02:07:55;;;;;;;1.83;1.00;;;14.30;99.90;;;;;;5059507;28;20402;-86
2022/07/13 02:10:34;;;;;;;4.10;0.90;;;14.30;99.90;;;;;;5071384;28;20826;-86
2022/07/13 02:13:06;;;;;;;1.95;0.85;;;14.40;99.90;;;;;;5071350;28;20460;-86
2022/07/13 02:15:35;;;;;;;5.68;1.00;;;14.30;99.90;;;;;;5087768;28;20394;-85
2022/07/13 02:18:05;;;;;;;1.63;1.10;;;14.30;99.90;;;;;;5071115;28;20891;-85
2022/07/13 02:20:34;;;;;;;6.43;1.10;;;14.30;99.90;;;;;;5072091;28;20406;-85
2022/07/13 02:23:04;;;;;;;2.00;0.90;;;14.30;99.90;;;;;;5070947;28;20779;-86
2022/07/13 02:25:35;;;;;;;5.87;1.00;;;14.30;99.90;;;;;;5070879;28;20396;-85
2022/07/13 02:28:06;;;;;;;6.07;1.00;;;14.30;99.90;;;;;;5087821;28;20430;-85
2022/07/13 02:30:34;;;;;;;2.80;1.08;;;14.20;99.90;;;;;;5070758;28;20401;-86
2022/07/13 02:33:02;;;;;;;6.75;1.50;;;14.20;99.90;;;;;;5087600;28;20875;-86
2022/07/13 02:35:30;;;;;;;1.95;1.00;;;14.20;99.90;;;;;;5071127;28;20476;-86
2022/07/13 02:37:58;;;;;;;2.42;0.93;;;14.20;99.90;;;;;;5070779;28;20460;-86
2022/07/13 02:40:26;;;;;;;1.98;0.80;;;14.20;99.90;;;;;;5070772;28;20405;-86
2022/07/13 02:42:55;;;;;;;4.43;0.90;;;14.00;99.90;;;;;;5070647;28;20409;-86
2022/07/13 02:45:24;;;;;;;4.20;1.10;;;14.10;99.90;;;;;;5087494;28;20432;-85
2022/07/13 02:47:54;;;;;;;3.58;0.98;;;14.10;99.90;;;;;;5087559;28;20473;-87
2022/07/13 02:50:22;;;;;;;4.07;1.30;;;14.10;99.90;;;;;;5072045;28;20390;-86
2022/07/13 02:52:52;;;;;;;2.65;1.00;;;14.00;99.90;;;;;;5087445;28;20417;-86
2022/07/13 02:55:20;;;;;;;3.30;1.10;;;14.10;99.90;;;;;;5088190;28;20394;-85
2022/07/13 02:57:48;;;;;;;2.42;0.90;;;14.10;99.90;;;;;;5070435;28;20458;-85
2022/07/13 03:00:16;;;;;;;2.17;0.90;;;14.10;99.90;;;;;;5072146;28;20459;-86
2022/07/13 03:02:44;;;;;;;3.13;0.90;;;14.00;99.90;;;;;;5090677;28;20411;-85
2022/07/13 03:05:14;;;;;;;3.10;1.00;;;14.00;99.90;;;;;;5090810;28;20389;-85
2022/07/13 03:07:43;;;;;;;1.13;0.85;;;14.10;99.90;;;;;;5090412;28;20396;-86
2022/07/13 03:10:13;;;;;;;2.03;1.05;;;13.90;99.90;;;;;;5090651;28;20446;-85
2022/07/13 03:12:42;;;;;;;3.00;0.98;;;13.80;99.90;;;;;;5074211;28;20923;-85
2022/07/13 03:15:10;;;;;;;3.63;1.08;;;13.90;99.90;;;;;;5073998;28;20418;-85
2022/07/13 03:17:40;;;;;;;2.55;1.20;;;13.90;99.90;;;;;;5090920;28;20470;-86
2022/07/13 03:20:11;;;;;;;2.53;0.90;;;13.90;99.90;;;;;;5090387;28;20923;-85
2022/07/13 03:22:39;;;;;;;1.40;0.95;;;13.80;99.90;;;;;;5074032;28;20389;-86
2022/07/13 03:25:08;;;;;;;3.40;1.00;;;13.90;99.90;;;;;;5073805;28;20389;-85
2022/07/13 03:27:36;;;;;;;3.70;1.25;;;13.70;99.90;;;;;;5091676;28;20380;-85
2022/07/13 03:30:06;;;;;;;4.20;1.10;;;13.80;99.90;;;;;;5090489;28;20388;-85
2022/07/13 03:32:34;;;;;;;2.33;1.15;;;13.80;99.90;;;;;;5090503;28;20384;-85
2022/07/13 03:35:02;;;;;;;3.00;1.00;;;13.90;99.90;;;;;;5090400;28;20387;-85
2022/07/13 03:37:31;;;;;;;5.45;1.00;;;13.70;99.90;;;;;;5090492;28;20380;-86
2022/07/13 03:39:59;;;;;;;2.95;0.90;;;13.80;99.90;;;;;;5073699;28;20380;-85
2022/07/13 03:42:27;;;;;;;2.93;1.00;;;13.80;99.90;;;;;;5090493;28;20457;-87
2022/07/13 03:44:55;;;;;;;1.75;0.90;;;13.80;99.90;;;;;;5091683;28;20477;-85
2022/07/13 03:47:23;;;;;;;2.45;0.80;;;13.80;99.90;;;;;;5090312;28;20393;-86
2022/07/13 03:49:51;;;;;;;7.05;1.27;;;13.70;99.90;;;;;;5090325;28;20380;-86
2022/07/13 03:52:20;;;;;;;2.35;0.90;;;13.80;99.90;;;;;;5090211;28;20420;-86
2022/07/13 03:54:47;;;;;;;2.90;0.80;;;13.70;99.90;;;;;;5090081;28;20388;-86
2022/07/13 03:57:15;;;;;;;4.40;1.00;;;13.80;99.90;;;;;;5090248;28;20493;-86
2022/07/13 03:59:43;;;;;;;5.25;1.30;;;13.70;99.90;;;;;;5073390;28;20457;-86
2022/07/13 04:02:16;;;;;;;1.48;0.80;;;13.80;99.90;;;;;;5054727;28;20915;-85
2022/07/13 04:04:44;;;;;;;2.45;1.00;;;13.80;99.90;;;;;;5057188;28;20431;-85
2022/07/13 04:07:12;;;;;;;3.55;0.80;;;13.90;99.90;;;;;;5088147;28;20762;-86
2022/07/13 04:09:41;;;;;;;3.22;0.80;;;14.00;99.90;;;;;;5093496;28;20398;-86
2022/07/13 04:12:10;;;;;;;3.45;0.90;;;13.90;99.90;;;;;;5080560;28;20390;-85
2022/07/13 04:14:38;;;;;;;2.30;0.93;;;13.90;99.90;;;;;;5096998;28;20390;-86
2022/07/13 04:17:06;;;;;;;3.08;1.00;;;13.90;99.90;;;;;;5115209;28;20382;-86
2022/07/13 04:19:34;;;;;;;2.20;1.00;;;14.00;99.90;;;;;;5097089;28;20386;-88
2022/07/13 04:22:02;;;;;;;5.75;1.40;;;13.90;99.90;;;;;;5115569;28;20473;-87
2022/07/13 04:24:34;;;;;;;5.25;1.20;;;14.00;99.90;;;;;;5096948;28;20395;-86
2022/07/13 04:27:02;;;;;;;5.13;1.60;;;14.00;99.90;;;;;;5090840;28;20386;-88
2022/07/13 04:29:31;;;;;;;3.42;1.08;;;14.00;99.90;;;;;;5099901;28;20414;-88
2022/07/13 04:31:59;;;;;;;2.67;0.80;;;13.90;99.90;;;;;;5096388;28;20798;-86
2022/07/13 04:34:26;;;;;;;2.13;1.00;;;13.80;99.90;;;;;;5113591;28;20456;-85
2022/07/13 04:36:55;;;;;;;2.00;0.90;;;13.90;99.90;;;;;;5078931;28;20854;-87
2022/07/13 04:39:24;;;;;;;3.30;1.05;;;13.90;99.90;;;;;;5079519;28;20407;-87
2022/07/13 04:41:53;;;;;;;1.83;1.05;;;14.00;99.90;;;;;;5096089;28;20398;-87
2022/07/13 04:44:21;;;;;;;1.90;0.95;;;14.00;99.90;;;;;;5095993;28;20388;-87
2022/07/13 04:46:49;;;;;;;2.53;0.93;;;14.00;99.90;;;;;;5093771;28;20460;-86
2022/07/13 04:49:19;;;;;;;2.00;0.90;;;13.90;99.90;;;;;;5113688;28;20398;-88
2022/07/13 04:51:48;;;;;;;3.67;1.30;;;13.90;99.90;;;;;;5080211;28;20745;-87
2022/07/13 04:54:17;;;;;;;2.53;1.20;;;14.00;99.90;;;;;;5096559;28;20391;-86
2022/07/13 04:56:46;;;;;;;3.40;1.23;;;13.90;99.90;;;;;;5096355;28;20849;-85
2022/07/13 04:59:14;;;;;;;2.63;1.07;;;13.90;99.90;;;;;;5096228;28;20390;-88
2022/07/13 05:01:42;;;;;;;2.58;1.15;;;13.90;99.90;;;;;;5111666;28;20409;-88
2022/07/13 05:04:10;;;;;;;3.10;1.40;;;13.90;99.90;;;;;;5106598;28;20393;-88
2022/07/13 05:06:38;;;;;;;2.53;1.30;;;14.00;99.90;;;;;;5092789;28;20388;-87
2022/07/13 05:09:06;;;;;;;2.40;1.00;;;14.00;99.90;;;;;;5093674;28;20882;-88
2022/07/13 05:11:35;;;;;;;2.50;1.10;;;14.00;99.90;;;;;;5093962;28;20391;-87
2022/07/13 05:14:03;;;;;;;4.25;1.30;;;14.10;99.90;;;;;;5081906;28;20397;-89
2022/07/13 05:16:31;;;;;;;1.98;1.00;;;14.10;99.90;;;;;;5095943;28;20383;-88
2022/07/13 05:19:02;;;;;;;1.60;1.10;;;14.20;99.90;;;;;;5096090;28;20465;-86
2022/07/13 05:21:36;;;;;;;2.28;0.93;;;14.20;99.90;;;;;;5091409;28;20426;-87
2022/07/13 05:24:04;;;;;;;3.90;1.40;;;14.20;99.90;;;;;;5092893;28;20873;-87
2022/07/13 05:26:32;;;;;;;3.15;1.23;;;14.20;99.90;;;;;;5075673;28;20381;-88
2022/07/13 05:29:04;;;;;;;4.93;1.08;;;14.20;99.90;;;;;;5075680;28;20389;-86
2022/07/13 05:31:32;;;;;;;3.10;1.30;;;14.20;99.90;;;;;;5075467;28;20419;-87
2022/07/13 05:34:02;;;;;;;3.10;1.27;;;14.20;99.90;;;;;;5092522;28;20794;-89
2022/07/13 05:36:35;;;;;;;2.20;1.00;;;14.20;99.90;;;;;;5080211;28;20419;-87
2022/07/13 05:39:04;;;;;;;2.40;0.90;;;14.20;99.90;;;;;;5095493;28;20415;-87
2022/07/13 05:41:34;;;;;;;2.95;0.95;;;14.20;99.90;;;;;;5095531;28;20398;-87
2022/07/13 05:44:02;;;;;;;3.45;1.25;;;14.30;99.90;;;;;;5095889;28;20378;-85
2022/07/13 05:46:31;;;;;;;5.93;1.17;;;14.30;99.90;;;;;;5095606;28;20449;-86
2022/07/13 05:48:59;;;;;;;2.63;0.90;;;14.30;99.90;;;;;;5095118;28;20393;-84
2022/07/13 05:51:28;;;;;;;1.55;0.82;;;14.40;99.90;;;;;;5094995;28;20379;-86
2022/07/13 05:54:02;;;;;;;2.53;0.98;;;14.30;99.90;;;;;;5079231;28;20436;-86
2022/07/13 05:56:50;;;;;;;2.77;1.00;;;14.30;99.90;;;;;;5093679;28;20386;-86
2022/07/13 05:59:17;;;;;;;3.92;1.08;;;14.30;99.90;;;;;;5113090;28;20472;-87
2022/07/13 06:01:45;;;;;;;2.47;1.10;;;14.30;99.90;;;;;;5094567;28;20420;-87
2022/07/13 06:04:13;;;;;;;4.45;0.93;;;14.40;99.90;;;;;;5095082;28;20379;-86
2022/07/13 06:06:41;;;;;;;3.92;0.90;;;14.40;99.90;;;;;;5095204;28;20900;-85
2022/07/13 06:09:09;;;;;;;2.55;1.05;;;14.40;99.90;;;;;;5112969;28;20422;-85
2022/07/13 06:11:36;;;;;;;2.10;1.00;;;14.50;99.90;;;;;;5094676;28;20398;-86
2022/07/13 06:14:04;;;;;;;2.67;1.00;;;14.50;99.90;;;;;;5094929;28;20410;-86
2022/07/13 06:16:32;;;;;;;1.60;1.00;;;14.60;99.90;;;;;;5094883;28;20506;-85
2022/07/13 06:19:00;;;;;;;2.22;1.00;;;14.60;99.90;;;;;;5094551;28;20393;-86
2022/07/13 06:21:28;;;;;;;1.77;0.90;;;14.60;99.90;;;;;;5077803;28;20834;-86
2022/07/13 06:23:55;;;;;;;1.85;0.90;;;14.60;99.90;;;;;;5077820;28;20386;-85
2022/07/13 06:26:23;;;;;;;3.05;1.05;;;14.70;99.90;;;;;;5094422;28;20399;-85
2022/07/13 06:28:51;;;;;;;3.08;1.10;;;14.80;99.90;;;;;;5094597;28;20455;-86
2022/07/13 06:31:23;;;;;;;2.15;1.10;;;14.80;99.90;;;;;;5112799;28;20385;-86
2022/07/13 06:33:52;;;;;;;3.45;1.20;;;14.80;99.90;;;;;;5094549;28;20392;-86
2022/07/13 06:36:20;;;;;;;2.70;1.10;;;14.90;99.90;;;;;;5094667;28;20394;-86
2022/07/13 06:38:49;;;;;;;2.15;1.13;;;14.90;99.90;;;;;;5077507;28;20897;-86
2022/07/13 06:41:17;;;;;;;3.10;1.17;;;14.90;99.90;;;;;;5094136;28;20398;-86
2022/07/13 06:43:45;;;;;;;3.17;1.20;;;14.90;99.90;;;;;;5077642;28;20418;-86
2022/07/13 06:46:13;;;;;;;4.40;1.00;;;15.00;99.90;;;;;;5094241;28;20402;-85
2022/07/13 06:48:41;;;;;;;2.33;1.10;;;15.00;99.90;;;;;;5077598;28;20556;-85
2022/07/13 06:51:09;;;;;;;2.30;1.00;;;15.10;99.90;;;;;;5077508;28;20416;-85
2022/07/13 06:53:37;;;;;;;2.78;1.08;;;15.20;99.90;;;;;;5094396;28;20872;-86
2022/07/13 06:56:05;;;;;;;2.33;1.10;;;15.20;99.90;;;;;;5077544;28;20386;-86
2022/07/13 06:58:32;;;;;;;3.08;1.10;;;15.20;99.90;;;;;;5077681;28;20383;-86
2022/07/13 07:01:00;;;;;;;2.08;0.90;;;15.30;99.90;;;;;;5093993;28;20398;-85
2022/07/13 07:03:28;;;;;;;2.00;1.00;;;15.30;99.90;;;;;;5112341;28;20831;-86
2022/07/13 07:05:56;;;;;;;2.38;0.90;;;15.40;99.90;;;;;;5093898;28;20389;-85
2022/07/13 07:08:24;;;;;;;2.92;1.20;;;15.50;99.90;;;;;;5090627;28;20401;-86
2022/07/13 07:10:52;;;;;;;4.30;1.07;;;15.50;99.90;;;;;;5074287;28;20404;-86
2022/07/13 07:13:19;;;;;;;2.40;1.00;;;15.50;99.90;;;;;;5090849;28;20490;-86
2022/07/13 07:15:48;;;;;;;1.05;0.90;;;15.50;99.90;;;;;;5090366;28;20487;-84
2022/07/13 07:18:15;;;;;;;3.60;1.08;;;15.60;99.90;;;;;;5091220;28;20430;-84
2022/07/13 07:20:43;;;;;;;2.63;1.02;;;15.60;99.90;;;;;;5090897;28;20395;-85
2022/07/13 07:23:12;;;;;;;5.75;1.20;;;15.70;99.90;;;;;;5091771;28;20407;-86
2022/07/13 07:25:40;;;;;;;2.87;1.10;;;15.70;99.90;;;;;;5090668;28;20380;-85
2022/07/13 07:28:09;;;;;;;1.38;1.10;;;15.80;99.90;;;;;;5090620;28;20384;-85
2022/07/13 07:30:38;;;;;;;2.70;1.10;;;15.80;99.90;;;;;;5090369;28;20406;-86
2022/07/13 07:33:06;;;;;;;2.65;1.15;;;15.90;99.90;;;;;;5090488;28;20384;-85
2022/07/13 07:35:33;;;;;;;4.90;1.20;;;15.90;99.90;;;;;;5073741;28;20384;-85
2022/07/13 07:38:01;;;;;;;1.83;1.10;;;15.90;99.90;;;;;;5073751;28;20426;-85
2022/07/13 07:40:29;;;;;;;1.52;1.10;;;16.00;99.90;;;;;;5091540;28;20399;-85
2022/07/13 07:42:56;;;;;;;3.35;1.20;;;16.10;99.90;;;;;;5090530;28;20407;-86
2022/07/13 07:45:25;;;;;;;4.10;1.20;;;16.10;99.90;;;;;;5092850;28;20412;-85
2022/07/13 07:47:53;;;;;;;2.08;1.10;;;16.30;99.90;;;;;;5095554;28;20868;-85
2022/07/13 07:50:21;;;;;;;2.20;1.10;;;16.40;99.90;;;;;;5077448;28;20419;-85
2022/07/13 07:52:48;;;;;;;1.98;1.30;;;16.40;99.90;;;;;;5095387;28;20388;-85
2022/07/13 07:55:20;;;;;;;2.38;1.17;;;16.40;99.90;;;;;;5094252;28;20450;-85
2022/07/13 07:57:50;;;;;;;2.08;1.23;;;16.50;99.90;;;;;;5094073;28;20438;-85
2022/07/13 08:00:19;;;;;;;3.08;1.08;;;16.50;99.90;;;;;;5095230;28;20471;-85
2022/07/13 08:02:47;;;;;;;3.95;1.08;;;16.50;99.90;;;;;;5093749;28;20411;-86
2022/07/13 08:05:16;;;;;;;2.35;1.20;;;16.50;99.90;;;;;;5077224;28;20389;-86
2022/07/13 08:07:45;;;;;;;2.87;1.30;;;16.60;99.90;;;;;;5093916;28;20411;-85
2022/07/13 08:10:14;;;;;;;2.60;1.10;;;16.70;99.90;;;;;;5093590;28;20392;-85
2022/07/13 08:12:56;;;;;;;3.00;1.27;;;16.80;99.90;;;;;;5093767;28;20442;-84
2022/07/13 08:15:24;;;;;;;2.42;1.20;;;16.80;99.90;;;;;;5094743;28;20412;-84
2022/07/13 08:17:52;;;;;;;1.70;1.05;;;17.00;99.90;;;;;;5093400;28;20391;-84
2022/07/13 08:20:20;;;;;;;2.00;1.17;;;17.20;99.90;;;;;;5093256;28;20386;-84
2022/07/13 08:22:50;;;;;;;2.00;1.20;;;17.30;99.90;;;;;;5094546;28;20411;-85
2022/07/13 08:25:18;;;;;;;2.15;1.20;;;17.20;99.90;;;;;;5076620;28;20740;-85
2022/07/13 08:27:46;;;;;;;4.57;1.30;;;17.30;99.90;;;;;;5076546;28;20411;-84
2022/07/13 08:30:13;;;;;;;3.25;1.10;;;17.20;99.90;;;;;;5093409;28;20982;-84
2022/07/13 08:32:42;;;;;;;2.80;1.08;;;17.20;99.90;;;;;;5093333;28;20385;-85
2022/07/13 08:40:43;;;;;;;6.07;1.23;;;17.50;99.90;;;;;;5094316;28;20391;-86
2022/07/13 08:43:11;;;;;;;3.25;1.20;;;17.60;99.90;;;;;;5093432;28;20461;-86
2022/07/13 08:45:41;;;;;;;2.10;1.02;;;17.70;99.90;;;;;;5076484;28;20424;-86
2022/07/13 08:48:19;;;;;;;2.45;1.20;;;17.60;99.90;;;;;;5093394;28;20385;-86
2022/07/13 08:50:47;;;;;;;3.35;1.10;;;17.60;99.90;;;;;;5093085;28;20399;-85
2022/07/13 08:53:15;;;;;;;1.65;1.00;;;17.80;99.90;;;;;;5094300;28;20389;-86
2022/07/13 08:55:44;;;;;;;3.33;0.90;;;17.70;99.90;;;;;;5092784;28;20385;-86
2022/07/13 08:58:18;;;;;;;2.53;0.90;;;17.70;99.90;;;;;;5093057;28;20388;-86
2022/07/13 09:00:46;;;;;;;1.92;0.90;;;17.80;99.90;;;;;;5076500;28;20426;-86
2022/07/13 09:03:14;;;;;;;2.80;1.10;;;17.80;99.90;;;;;;5093023;28;20397;-86
2022/07/13 09:05:43;;;;;;;2.58;0.90;;;17.90;99.90;;;;;;5076119;28;20720;-85
2022/07/13 09:08:12;;;;;;;1.88;1.00;;;17.90;99.90;;;;;;5092576;28;20434;-86
2022/07/13 09:11:01;;;;;;;2.75;0.90;;;18.00;99.90;;;;;;5092769;28;20384;-86
2022/07/13 09:13:36;;;;;;;2.28;0.90;;;18.10;99.90;;;;;;5092749;28;20411;-86
2022/07/13 09:16:19;;;;;;;2.05;0.90;;;18.20;99.90;;;;;;5092642;28;20467;-87
2022/07/13 09:18:50;;;;;;;1.40;0.80;;;18.10;99.90;;;;;;5092577;28;20388;-87
2022/07/13 09:21:19;;;;;;;2.67;0.90;;;18.20;99.90;;;;;;5092856;28;20442;-86
2022/07/13 09:23:54;;;;;;;1.20;0.80;;;18.40;99.90;;;;;;5092466;28;20419;-86
2022/07/13 09:26:22;;;;;;;1.23;0.80;;;18.40;99.90;;;;;;5093638;28;20387;-86
2022/07/13 09:28:51;;;;;;;2.25;0.80;;;18.40;99.90;;;;;;5092362;28;20381;-86
2022/07/13 09:31:19;;;;;;;0.90;0.70;;;18.50;99.90;;;;;;5075616;28;20761;-86
2022/07/13 09:33:47;;;;;;;2.65;0.60;;;18.60;99.90;;;;;;5092591;28;20589;-85
2022/07/13 09:36:22;;;;;;;1.20;0.80;;;18.60;99.90;;;;;;5075660;28;20592;-86
2022/07/13 09:38:53;;;;;;;2.38;1.00;;;18.60;99.90;;;;;;5092292;28;20389;-86
2022/07/13 09:41:22;;;;;;;1.60;0.75;;;18.70;99.90;;;;;;5092284;28;20385;-85
2022/07/13 09:46:55;;;;;;;3.47;1.00;;;18.60;99.90;;;;;;5093131;28;20384;-86
2022/07/13 09:49:41;;;;;;;2.70;0.88;;;18.70;99.90;;;;;;5093315;28;20388;-86
2022/07/13 09:52:17;;;;;;;0.98;0.88;;;18.80;99.90;;;;;;5093125;28;20388;-84
2022/07/13 09:54:51;;;;;;;1.88;0.90;;;18.90;99.90;;;;;;5092936;28;20392;-85
2022/07/13 09:57:22;;;;;;;2.40;0.90;;;19.00;99.90;;;;;;5091680;28;20403;-85
2022/07/13 09:59:52;;;;;;;3.93;0.87;;;19.00;99.90;;;;;;5091337;28;20498;-86
2022/07/13 10:02:20;;;;;;;2.53;0.70;;;19.10;99.90;;;;;;5091580;28;20416;-85
2022/07/13 10:04:49;;;;;;;1.58;0.70;;;19.10;99.90;;;;;;5093040;28;20452;-87
2022/07/13 10:07:19;;;;;;;3.58;0.80;;;19.20;99.90;;;;;;5095561;28;20399;-86
2022/07/13 10:09:46;;;;;;;0.95;0.70;;;19.40;99.90;;;;;;5113293;28;20383;-86
2022/07/13 10:12:14;;;;;;;0.95;0.80;;;19.40;99.90;;;;;;5113518;28;20423;-86
2022/07/13 10:14:42;;;;;;;1.73;0.90;;;19.40;99.90;;;;;;5096154;28;20880;-84
2022/07/13 10:17:20;;;;;;;1.70;0.80;;;19.50;99.90;;;;;;5096765;28;20390;-85
2022/07/13 10:19:50;;;;;;;1.10;0.80;;;19.60;99.90;;;;;;5091345;28;20483;-84
2022/07/13 10:22:19;;;;;;;2.28;0.93;;;19.60;99.90;;;;;;5092590;28;20407;-85
2022/07/13 10:24:54;;;;;;;1.67;0.88;;;19.60;99.90;;;;;;5092844;28;20472;-85
2022/07/13 10:27:35;;;;;;;1.98;1.00;;;19.40;99.90;;;;;;5057990;28;20387;-85
2022/07/13 10:30:21;;;;;;;2.77;0.90;;;19.20;99.90;;;;;;5092310;28;20392;-86
2022/07/13 10:32:50;;;;;;;1.30;0.90;;;19.40;99.90;;;;;;5088440;28;20383;-83
2022/07/13 10:35:20;;;;;;;1.65;0.73;;;19.60;99.90;;;;;;5112762;28;20386;-84
2022/07/13 10:37:59;;;;;;;2.63;0.88;;;19.80;99.90;;;;;;5112737;28;20383;-84
2022/07/13 10:40:34;;;;;;;2.33;0.68;;;19.90;99.90;;;;;;5112926;28;20424;-86
2022/07/13 10:43:03;;;;;;;0.90;0.80;;;19.90;99.90;;;;;;5112598;28;20398;-85
2022/07/13 10:45:43;;;;;;;2.22;0.80;;;19.90;99.90;;;;;;5112548;28;20403;-83
2022/07/13 10:48:24;;;;;;;1.77;0.82;;;20.00;99.90;;;;;;5091972;28;20437;-84
2022/07/13 10:50:57;;;;;;;1.17;0.70;;;20.10;99.90;;;;;;5100842;28;20370;-85
2022/07/13 10:53:43;;;;;;;1.40;0.80;;;20.30;99.90;;;;;;5110258;28;20752;-85
2022/07/13 10:56:19;;;;;;;1.13;0.75;;;20.40;99.90;;;;;;5111749;28;20389;-82
2022/07/13 10:58:49;;;;;;;1.85;0.70;;;20.50;99.90;;;;;;5090812;28;20424;-84
2022/07/13 11:01:48;;;;;;;1.60;0.70;;;20.50;99.90;;;;;;5083233;28;20454;-85
2022/07/13 11:04:18;;;;;;;1.73;0.70;;;20.50;99.90;;;;;;5074431;28;20403;-84
2022/07/13 11:07:07;;;;;;;2.05;0.70;;;20.60;99.90;;;;;;5092096;28;20468;-84
2022/07/13 11:09:34;;;;;;;2.53;0.80;;;20.60;99.90;;;;;;5099904;28;20861;-83
2022/07/13 11:12:21;;;;;;;5.25;0.80;;;20.20;99.90;;;;;;5091197;28;20462;-84
2022/07/13 11:14:51;;;;;;;1.65;0.80;;;20.00;99.90;;;;;;5085536;28;20401;-84
2022/07/13 11:17:24;;;;;;;1.80;0.60;;;20.00;99.90;;;;;;5072832;28;20495;-84
2022/07/13 11:19:55;;;;;;;0.73;0.70;;;20.00;99.90;;;;;;5079862;28;20415;-84
2022/07/13 11:25:13;;;;;;;2.35;0.73;;;20.00;99.90;;;;;;5096291;28;20396;-84
2022/07/13 11:25:30;;;;;;;2.30;0.80;;;19.90;99.90;;;;;;5100570;28;20426;-84
2022/07/13 11:28:20;;;;;;;2.80;0.70;;;19.80;99.90;;;;;;5107893;28;20394;-84
2022/07/13 11:30:54;;;;;;;1.25;0.77;;;19.80;99.90;;;;;;5082870;28;20912;-85
2022/07/13 11:33:23;;;;;;;0.90;0.67;;;20.10;99.90;;;;;;5095848;28;20422;-84
2022/07/13 11:35:51;;;;;;;2.30;0.70;;;20.30;99.90;;;;;;5107335;28;20394;-84
2022/07/13 11:38:19;;;;;;;1.80;0.70;;;20.30;99.90;;;;;;5095930;28;20380;-84
2022/07/13 11:40:47;;;;;;;1.67;0.70;;;20.40;99.90;;;;;;5095732;28;20435;-85
2022/07/13 11:43:15;;;;;;;1.40;0.70;;;20.50;99.90;;;;;;5095648;28;20477;-84
2022/07/13 11:45:43;;;;;;;2.77;0.70;;;20.80;99.90;;;;;;5095735;28;20381;-84
2022/07/13 11:48:12;;;;;;;0.73;0.50;;;21.00;99.90;;;;;;5095467;28;20396;-84
2022/07/13 11:50:53;;;;;;;1.30;0.70;;;21.00;99.90;;;;;;5077819;28;20391;-85
2022/07/13 11:53:22;;;;;;;2.65;0.93;;;21.10;99.90;;;;;;5077791;28;20392;-85
2022/07/13 11:55:51;;;;;;;1.90;0.60;;;21.10;99.90;;;;;;5095451;28;20392;-85
2022/07/13 11:58:27;;;;;;;1.58;0.63;;;21.10;99.90;;;;;;5077758;28;20390;-84
2022/07/13 12:00:56;;;;;;;2.50;0.77;;;21.30;99.90;;;;;;5102164;28;20447;-85
2022/07/13 12:03:29;;;;;;;1.30;0.63;;;21.40;99.90;;;;;;5093769;28;20400;-85
2022/07/13 12:06:07;;;;;;;0.73;0.60;;;21.50;99.90;;;;;;5077245;28;20384;-85
2022/07/13 12:08:40;;;;;;;3.33;0.63;;;21.60;99.90;;;;;;5073669;28;20394;-85
2022/07/13 12:11:16;;;;;;;1.80;0.70;;;21.60;99.90;;;;;;5083209;28;20742;-85
2022/07/13 12:13:45;;;;;;;1.00;0.65;;;21.50;99.90;;;;;;5087416;28;20413;-84
2022/07/13 12:16:15;;;;;;;1.70;0.70;;;21.20;99.90;;;;;;5089519;28;20904;-86
2022/07/13 12:19:01;;;;;;;1.45;0.70;;;21.00;99.90;;;;;;5090399;28;20472;-85
2022/07/13 12:21:29;;;;;;;1.50;0.60;;;20.80;99.90;;;;;;5073718;28;20448;-85
2022/07/13 12:23:58;;;;;;;1.95;0.70;;;20.70;99.90;;;;;;5074500;28;20436;-85
2022/07/13 12:26:27;;;;;;;1.52;0.70;;;20.50;99.90;;;;;;5079079;28;20397;-83
2022/07/13 12:28:55;;;;;;;1.70;0.57;;;20.50;99.90;;;;;;5085872;28;20385;-86
2022/07/13 12:31:24;;;;;;;3.10;0.60;;;20.60;99.90;;;;;;5082725;28;20799;-85
2022/07/13 12:33:52;;;;;;;0.57;0.50;;;20.90;99.90;;;;;;5067498;28;20484;-84
2022/07/13 12:36:23;;;;;;;1.75;0.70;;;21.20;99.90;;;;;;5094457;28;20399;-85
2022/07/13 12:39:01;;;;;;;3.50;0.60;;;21.20;99.90;;;;;;5093396;28;20388;-86
2022/07/13 12:41:34;;;;;;;1.65;0.70;;;20.80;99.90;;;;;;5093237;28;20492;-86
2022/07/13 12:44:04;;;;;;;0.77;0.60;;;20.90;99.90;;;;;;5094741;28;20396;-85
2022/07/13 12:46:54;;;;;;;1.98;0.60;;;21.00;99.90;;;;;;5094687;28;20886;-84
2022/07/13 12:49:36;;;;;;;1.65;0.60;;;20.80;99.90;;;;;;5094366;28;20859;-86
2022/07/13 12:52:05;;;;;;;1.60;0.60;;;20.60;99.90;;;;;;5074269;28;20385;-86
2022/07/13 12:54:42;;;;;;;1.00;0.60;;;20.60;99.90;;;;;;5089723;28;20448;-85
2022/07/13 12:57:12;;;;;;;1.75;0.60;;;20.50;99.90;;;;;;5104137;28;20961;-87
2022/07/13 12:59:39;;;;;;;1.48;0.60;;;20.60;99.90;;;;;;5094120;28;20896;-84
2022/07/13 13:02:08;;;;;;;1.17;0.70;;;20.90;99.90;;;;;;5094123;28;20956;-84
2022/07/13 13:04:36;;;;;;;3.35;0.60;;;21.10;99.90;;;;;;5082051;28;20403;-86
2022/07/13 13:07:03;;;;;;;1.20;0.60;;;21.30;99.90;;;;;;5077986;28;20384;-85
2022/07/13 13:09:31;;;;;;;2.93;0.70;;;21.50;99.90;;;;;;5113559;28;21006;-85
2022/07/13 13:12:00;;;;;;;0.90;0.50;;;21.90;99.90;;;;;;5114350;28;20783;-86